createdAt,value
2023-08-15T03:51:47.389Z,1001.81
2023-08-15T03:52:45.819Z,1001.81
2023-08-15T03:53:47.236Z,1001.83
2023-08-15T03:54:48.624Z,1001.84
2023-08-15T03:55:50.059Z,1001.81
2023-08-15T03:56:51.452Z,1001.85
2023-08-15T03:57:52.832Z,1001.81
2023-08-15T03:58:54.222Z,1001.86
2023-08-15T03:59:55.621Z,1001.89
2023-08-15T04:00:57.029Z,1001.90
2023-08-15T04:01:59.356Z,1001.89
2023-08-15T04:02:59.808Z,1001.92
2023-08-15T04:04:01.288Z,1001.93
2023-08-15T04:05:02.701Z,1001.98
2023-08-15T04:06:04.095Z,1001.98
2023-08-15T04:07:05.513Z,1001.98
2023-08-15T04:08:06.938Z,1002.03
2023-08-15T04:09:08.352Z,1002.01
2023-08-15T04:10:09.725Z,1002.04
2023-08-15T04:11:11.131Z,1002.01
2023-08-15T04:12:12.526Z,1002.01
2023-08-15T04:13:14.000Z,1002.02
2023-08-15T04:14:15.414Z,1002.02
2023-08-15T04:15:16.828Z,1002.03
2023-08-15T04:16:18.258Z,1002.02
2023-08-15T04:17:20.096Z,1002.01
2023-08-15T04:18:21.665Z,1001.89
2023-08-15T04:19:23.086Z,1001.90
2023-08-15T04:20:24.658Z,1001.91
2023-08-15T04:21:26.136Z,1001.86
2023-08-15T04:22:27.514Z,1001.82
2023-08-15T04:23:28.971Z,1001.81
2023-08-15T04:24:30.392Z,1001.81
2023-08-15T04:25:32.070Z,1001.82
2023-08-15T04:26:33.452Z,1001.79
2023-08-15T04:27:34.856Z,1001.86
2023-08-15T04:28:36.306Z,1001.83
2023-08-15T04:29:37.686Z,1001.84
2023-08-15T04:30:39.080Z,1001.82
2023-08-15T04:31:40.487Z,1001.83
2023-08-15T04:32:41.875Z,1001.83
2023-08-15T04:33:43.286Z,1001.86
2023-08-15T04:34:44.691Z,1001.86
2023-08-15T04:35:46.111Z,1001.89
2023-08-15T04:36:47.525Z,1001.86
2023-08-15T04:37:48.933Z,1001.84
2023-08-15T04:38:50.367Z,1001.84
2023-08-15T04:39:51.780Z,1001.78
2023-08-15T04:40:53.155Z,1001.75
2023-08-15T04:41:54.548Z,1001.74
2023-08-15T04:42:55.970Z,1001.80
2023-08-15T04:43:57.396Z,1001.84
2023-08-15T04:44:58.779Z,1001.85
2023-08-15T04:46:00.198Z,1001.84
2023-08-15T04:47:01.584Z,1001.82
2023-08-15T04:48:03.098Z,1001.80
2023-08-15T04:49:04.513Z,1001.83
2023-08-15T04:50:05.904Z,1001.88
2023-08-15T04:51:07.388Z,1001.84
2023-08-15T04:52:08.764Z,1001.90
2023-08-15T04:53:10.169Z,1001.86
2023-08-15T04:54:11.599Z,1001.91
2023-08-15T04:55:13.003Z,1001.89
2023-08-15T04:56:14.410Z,1001.89
2023-08-15T04:57:15.835Z,1001.90
2023-08-15T04:58:17.259Z,1001.95
2023-08-15T04:59:18.661Z,1001.97
2023-08-15T05:00:20.094Z,1001.98
2023-08-15T05:01:21.501Z,1001.98
2023-08-15T05:02:22.871Z,1001.94
2023-08-15T05:03:24.244Z,1001.96
2023-08-15T05:04:25.657Z,1001.95
2023-08-15T05:05:27.138Z,1001.92
2023-08-15T05:06:28.529Z,1001.94
2023-08-15T05:07:29.919Z,1001.92
2023-08-15T05:08:31.319Z,1001.95
2023-08-15T05:09:32.750Z,1001.99
2023-08-15T05:10:34.159Z,1001.97
2023-08-15T05:11:35.553Z,1002.03
2023-08-15T05:12:36.954Z,1002.08
2023-08-15T05:13:38.361Z,1002.09
2023-08-15T05:14:39.762Z,1002.07
2023-08-15T05:15:41.220Z,1002.04
2023-08-15T05:16:42.586Z,1002.08
2023-08-15T05:17:44.023Z,1002.07
2023-08-15T05:18:45.389Z,1002.09
2023-08-15T05:19:46.807Z,1002.14
2023-08-15T05:20:48.198Z,1002.11
2023-08-15T05:21:49.610Z,1002.10
2023-08-15T05:22:50.983Z,1002.15
2023-08-15T05:23:52.343Z,1002.08
2023-08-15T05:24:53.768Z,1002.05
2023-08-15T05:25:55.158Z,1002.06
2023-08-15T05:26:56.567Z,1002.08
2023-08-15T05:27:57.943Z,1002.10
2023-08-15T05:28:59.334Z,1002.10
2023-08-15T05:30:00.838Z,1002.07
2023-08-15T05:31:02.294Z,1002.06
2023-08-15T05:32:03.679Z,1002.05
2023-08-15T05:33:05.109Z,1002.06
2023-08-15T05:34:08.304Z,1002.09
2023-08-15T05:35:08.636Z,1002.09
2023-08-15T05:36:10.020Z,1002.07
2023-08-15T05:37:11.409Z,1002.09
2023-08-15T05:38:12.801Z,1002.13
2023-08-15T05:39:14.211Z,1002.08
2023-08-15T05:40:15.627Z,1002.11
2023-08-15T05:41:17.041Z,1002.12
2023-08-15T05:42:18.434Z,1002.11
2023-08-15T05:43:19.849Z,1002.12
2023-08-15T05:44:21.215Z,1002.09
2023-08-15T05:45:22.658Z,1002.11
2023-08-15T05:46:24.078Z,1002.14
2023-08-15T05:47:25.482Z,1002.15
2023-08-15T05:48:26.929Z,1002.14
2023-08-15T05:49:28.336Z,1002.16
2023-08-15T05:50:29.756Z,1002.16
2023-08-15T05:51:31.132Z,1002.20
2023-08-15T05:52:32.527Z,1002.20
2023-08-15T05:53:33.939Z,1002.25
2023-08-15T05:54:35.366Z,1002.20
2023-08-15T05:55:36.767Z,1002.21
2023-08-15T05:56:38.171Z,1002.21
2023-08-15T05:57:39.549Z,1002.22
2023-08-15T05:58:40.930Z,1002.20
2023-08-15T05:59:42.317Z,1002.21
2023-08-15T06:00:43.736Z,1002.19
2023-08-15T06:01:45.115Z,1002.14
2023-08-15T06:02:46.542Z,1002.09
2023-08-15T06:03:53.140Z,1002.09
2023-08-15T06:04:49.830Z,1002.08
2023-08-15T06:05:51.239Z,1002.08
2023-08-15T06:06:52.630Z,1002.10
2023-08-15T06:07:54.049Z,1002.16
2023-08-15T06:08:55.449Z,1002.18
2023-08-15T06:09:56.862Z,1002.15
2023-08-15T06:10:58.300Z,1002.15
2023-08-15T06:11:59.691Z,1002.11
2023-08-15T06:13:01.088Z,1002.13
2023-08-15T06:14:02.505Z,1002.12
2023-08-15T06:15:03.891Z,1002.13
2023-08-15T06:16:05.277Z,1002.17
2023-08-15T06:17:06.720Z,1002.15
2023-08-15T06:18:08.115Z,1002.15
2023-08-15T06:19:09.494Z,1002.14
2023-08-15T06:20:10.894Z,1002.21
2023-08-15T06:21:12.325Z,1002.15
2023-08-15T06:22:13.738Z,1002.13
2023-08-15T06:23:15.132Z,1002.13
2023-08-15T06:24:16.485Z,1002.09
2023-08-15T06:25:17.892Z,1002.08
2023-08-15T06:26:19.324Z,1002.05
2023-08-15T06:27:20.945Z,1002.04
2023-08-15T06:28:23.419Z,1002.01
2023-08-15T06:29:23.714Z,1001.99
2023-08-15T06:30:25.117Z,1001.96
2023-08-15T06:31:26.923Z,1001.94
2023-08-15T06:32:28.353Z,1001.99
2023-08-15T06:33:29.752Z,1001.98
2023-08-15T06:34:31.134Z,1002.05
2023-08-15T06:35:32.534Z,1002.09
2023-08-15T06:36:33.953Z,1002.15
2023-08-15T06:37:35.370Z,1002.14
2023-08-15T06:38:36.762Z,1002.15
2023-08-15T06:39:38.165Z,1002.20
2023-08-15T06:40:39.547Z,1002.24
2023-08-15T06:41:40.968Z,1002.26
2023-08-15T06:42:42.357Z,1002.27
2023-08-15T06:43:43.779Z,1002.26
2023-08-15T06:44:45.175Z,1002.29
2023-08-15T06:45:46.558Z,1002.26
2023-08-15T06:46:48.046Z,1002.33
2023-08-15T06:47:49.441Z,1002.33
2023-08-15T06:48:50.812Z,1002.36
2023-08-15T06:49:52.201Z,1002.33
2023-08-15T06:50:53.602Z,1002.37
2023-08-15T06:51:55.002Z,1002.36
2023-08-15T06:52:56.433Z,1002.34
2023-08-15T06:53:57.814Z,1002.31
2023-08-15T06:54:59.210Z,1002.36
2023-08-15T06:56:00.638Z,1002.34
2023-08-15T06:57:02.049Z,1002.37
2023-08-15T06:58:03.472Z,1002.40
2023-08-15T06:59:04.876Z,1002.32
2023-08-15T07:00:06.241Z,1002.36
2023-08-15T07:01:07.790Z,1002.32
2023-08-15T07:02:09.311Z,1002.39
2023-08-15T07:03:10.781Z,1002.40
2023-08-15T07:04:12.219Z,1002.44
2023-08-15T07:05:13.621Z,1002.45
2023-08-15T07:06:15.009Z,1002.48
2023-08-15T07:07:16.494Z,1002.51
2023-08-15T07:08:17.843Z,1002.49
2023-08-15T07:09:19.260Z,1002.61
2023-08-15T07:10:20.673Z,1002.55
2023-08-15T07:11:22.042Z,1002.63
2023-08-15T07:12:23.685Z,1002.55
2023-08-15T07:13:25.257Z,1002.58
2023-08-15T07:14:26.627Z,1002.66
2023-08-15T07:15:28.032Z,1002.62
2023-08-15T07:16:29.479Z,1002.63
2023-08-15T07:17:30.913Z,1002.55
2023-08-15T07:18:32.355Z,1002.56
2023-08-15T07:19:33.765Z,1002.46
2023-08-15T07:20:35.862Z,1002.45
2023-08-15T07:21:36.927Z,1002.45
2023-08-15T07:22:38.346Z,1002.45
2023-08-15T07:23:39.745Z,1002.58
2023-08-15T07:24:42.051Z,1002.55
2023-08-15T07:25:42.367Z,1002.67
2023-08-15T07:26:43.755Z,1002.68
2023-08-15T07:27:45.185Z,1002.65
2023-08-15T07:28:46.573Z,1002.66
2023-08-15T07:29:47.949Z,1002.67
2023-08-15T07:30:49.344Z,1002.74
2023-08-15T07:31:50.767Z,1002.76
2023-08-15T07:32:52.308Z,1002.81
2023-08-15T07:33:53.660Z,1002.81
2023-08-15T07:34:55.057Z,1002.84
2023-08-15T07:35:56.456Z,1002.82
2023-08-15T07:36:57.855Z,1002.82
2023-08-15T07:38:00.812Z,1002.92
2023-08-15T07:39:00.945Z,1002.89
2023-08-15T07:40:02.370Z,1002.99
2023-08-15T07:41:03.777Z,1002.99
2023-08-15T07:42:05.173Z,1003.05
2023-08-15T07:43:06.576Z,1003.12
2023-08-15T07:44:07.977Z,1003.13
2023-08-15T07:45:09.390Z,1003.12
2023-08-15T07:46:10.852Z,1003.18
2023-08-15T07:47:12.230Z,1003.19
2023-08-15T07:48:13.654Z,1003.21
2023-08-15T07:49:15.069Z,1003.20
2023-08-15T07:50:16.467Z,1003.28
2023-08-15T07:51:17.880Z,1003.27
2023-08-15T07:52:19.288Z,1003.28
2023-08-15T07:53:20.711Z,1003.31
2023-08-15T07:54:22.121Z,1003.33
2023-08-15T07:55:23.510Z,1003.33
2023-08-15T07:56:25.002Z,1003.27
2023-08-15T07:57:26.402Z,1003.29
2023-08-15T07:58:27.834Z,1003.25
2023-08-15T07:59:29.226Z,1003.34
2023-08-15T08:00:30.606Z,1003.28
2023-08-15T08:01:32.050Z,1003.29
2023-08-15T08:02:33.496Z,1003.30
2023-08-15T08:03:34.920Z,1003.29
2023-08-15T08:04:36.327Z,1003.29
2023-08-15T08:05:37.750Z,1003.28
2023-08-15T08:06:41.058Z,1003.29
2023-08-15T08:07:52.240Z,1003.19
2023-08-15T08:08:41.516Z,1003.17
2023-08-15T08:09:42.916Z,1003.19
2023-08-15T08:10:44.927Z,1003.20
2023-08-15T08:11:46.311Z,1003.17
2023-08-15T08:12:47.718Z,1003.16
2023-08-15T08:13:49.134Z,1003.09
2023-08-15T08:14:57.266Z,1002.99
2023-08-15T08:15:52.503Z,1002.97
2023-08-15T08:16:53.856Z,1003.10
2023-08-15T08:17:55.285Z,1003.09
2023-08-15T08:18:56.702Z,1003.11
2023-08-15T08:19:58.104Z,1002.94
2023-08-15T08:20:59.495Z,1002.93
2023-08-15T08:22:00.884Z,1003.05
2023-08-15T08:23:02.287Z,1002.89
2023-08-15T08:24:03.691Z,1002.89
2023-08-15T08:25:05.213Z,1002.96
2023-08-15T08:26:06.750Z,1003.04
2023-08-15T08:27:08.142Z,1003.05
2023-08-15T08:28:09.558Z,1003.04
2023-08-15T08:29:10.962Z,1003.10
2023-08-15T08:30:12.377Z,1003.08
2023-08-15T08:31:13.816Z,1003.15
2023-08-15T08:32:15.223Z,1003.14
2023-08-15T08:33:16.593Z,1003.13
2023-08-15T08:34:18.055Z,1003.15
2023-08-15T08:35:19.466Z,1003.15
2023-08-15T08:36:20.879Z,1003.19
2023-08-15T08:37:22.286Z,1003.14
2023-08-15T08:38:24.817Z,1003.14
2023-08-15T08:39:31.709Z,1003.17
2023-08-15T08:40:26.984Z,1003.13
2023-08-15T08:41:28.400Z,1003.18
2023-08-15T08:42:29.831Z,1003.21
2023-08-15T08:43:31.212Z,1003.20
2023-08-15T08:44:32.634Z,1003.25
2023-08-15T08:45:34.050Z,1003.21
2023-08-15T08:46:35.429Z,1003.23
2023-08-15T08:47:36.828Z,1003.20
2023-08-15T08:48:39.271Z,1003.24
2023-08-15T08:49:39.757Z,1003.24
2023-08-15T08:50:41.140Z,1003.24
2023-08-15T08:51:42.540Z,1003.26
2023-08-15T08:52:43.980Z,1003.30
2023-08-15T08:53:45.351Z,1003.27
2023-08-15T08:54:56.379Z,1003.29
2023-08-15T08:55:48.731Z,1003.30
2023-08-15T08:56:50.102Z,1003.36
2023-08-15T08:57:51.525Z,1003.38
2023-08-15T08:58:52.921Z,1003.39
2023-08-15T08:59:54.368Z,1003.37
2023-08-15T09:00:55.941Z,1003.37
2023-08-15T09:01:57.300Z,1003.32
2023-08-15T09:02:58.839Z,1003.38
2023-08-15T09:04:00.332Z,1003.32
2023-08-15T09:05:01.763Z,1003.32
2023-08-15T09:06:03.174Z,1003.31
2023-08-15T09:07:04.683Z,1003.30
2023-08-15T09:08:06.027Z,1003.26
2023-08-15T09:09:07.601Z,1003.31
2023-08-15T09:10:08.974Z,1003.33
2023-08-15T09:11:10.373Z,1003.40
2023-08-15T09:12:11.787Z,1003.41
2023-08-15T09:13:13.250Z,1003.41
2023-08-15T09:14:14.611Z,1003.38
2023-08-15T09:15:16.025Z,1003.35
2023-08-15T09:16:17.452Z,1003.29
2023-08-15T09:17:18.982Z,1003.27
2023-08-15T09:18:20.563Z,1003.26
2023-08-15T09:19:21.966Z,1003.27
2023-08-15T09:20:23.411Z,1003.25
2023-08-15T09:21:24.819Z,1003.27
2023-08-15T09:22:26.259Z,1003.23
2023-08-15T09:23:27.671Z,1003.24
2023-08-15T09:24:29.083Z,1003.15
2023-08-15T09:25:30.513Z,1003.14
2023-08-15T09:26:31.908Z,1003.09
2023-08-15T09:27:33.283Z,1003.07
2023-08-15T09:28:34.710Z,1003.10
2023-08-15T09:29:36.802Z,1003.22
2023-08-15T09:30:38.248Z,1003.06
2023-08-15T09:31:39.701Z,1003.04
2023-08-15T09:32:41.270Z,1003.01
2023-08-15T09:33:42.674Z,1002.99
2023-08-15T09:34:44.101Z,1002.96
2023-08-15T09:35:57.320Z,1002.93
2023-08-15T09:36:47.428Z,1002.91
2023-08-15T09:37:48.966Z,1002.95
2023-08-15T09:38:50.339Z,1002.94
2023-08-15T09:39:51.719Z,1002.96
2023-08-15T09:40:53.138Z,1003.00
2023-08-15T09:41:54.547Z,1003.00
2023-08-15T09:42:56.019Z,1002.97
2023-08-15T09:43:57.421Z,1003.00
2023-08-15T09:44:58.831Z,1003.18
2023-08-15T09:46:00.427Z,1002.96
2023-08-15T09:47:01.877Z,1002.94
2023-08-15T09:48:03.307Z,1002.96
2023-08-15T09:49:04.776Z,1002.89
2023-08-15T09:50:06.175Z,1002.89
2023-08-15T09:51:07.627Z,1002.90
2023-08-15T09:52:09.025Z,1002.87
2023-08-15T09:53:10.425Z,1002.86
2023-08-15T09:54:11.849Z,1002.87
2023-08-15T09:55:13.315Z,1002.90
2023-08-15T09:56:14.741Z,1002.90
2023-08-15T09:57:16.176Z,1002.92
2023-08-15T09:58:17.563Z,1002.96
2023-08-15T09:59:18.970Z,1002.98
2023-08-15T10:00:20.383Z,1002.98
2023-08-15T10:01:21.854Z,1002.90
2023-08-15T10:02:23.232Z,1002.92
2023-08-15T10:03:24.692Z,1002.92
2023-08-15T10:04:26.038Z,1002.92
2023-08-15T10:05:27.441Z,1002.99
2023-08-15T10:06:28.857Z,1002.98
2023-08-15T10:07:30.305Z,1002.99
2023-08-15T10:08:31.704Z,1003.01
2023-08-15T10:09:33.088Z,1003.00
2023-08-15T10:10:34.485Z,1003.08
2023-08-15T10:11:35.937Z,1002.97
2023-08-15T10:12:37.345Z,1002.95
2023-08-15T10:13:38.740Z,1002.99
2023-08-15T10:14:40.142Z,1002.96
2023-08-15T10:15:41.561Z,1002.93
2023-08-15T10:16:43.024Z,1002.96
2023-08-15T10:17:44.514Z,1002.92
2023-08-15T10:18:45.925Z,1002.96
2023-08-15T10:19:47.320Z,1002.98
2023-08-15T10:20:48.715Z,1003.08
2023-08-15T10:21:50.136Z,1003.07
2023-08-15T10:22:51.548Z,1003.07
2023-08-15T10:23:52.941Z,1002.93
2023-08-15T10:24:54.370Z,1003.05
2023-08-15T10:25:55.789Z,1003.08
2023-08-15T10:26:57.175Z,1003.02
2023-08-15T10:27:58.578Z,1002.98
2023-08-15T10:28:59.985Z,1002.95
2023-08-15T10:30:01.395Z,1002.95
2023-08-15T10:31:02.867Z,1003.02
2023-08-15T10:32:04.275Z,1003.02
2023-08-15T10:33:05.704Z,1003.06
2023-08-15T10:34:07.075Z,1002.99
2023-08-15T10:35:08.505Z,1003.09
2023-08-15T10:36:09.918Z,1002.99
2023-08-15T10:37:11.363Z,1003.04
2023-08-15T10:38:12.811Z,1003.02
2023-08-15T10:39:14.268Z,1002.87
2023-08-15T10:40:15.668Z,1002.90
2023-08-15T10:41:17.111Z,1002.96
2023-08-15T10:42:18.512Z,1002.92
2023-08-15T10:43:19.921Z,1003.08
2023-08-15T10:44:21.309Z,1002.92
2023-08-15T10:45:22.716Z,1002.91
2023-08-15T10:46:24.139Z,1003.12
2023-08-15T10:47:25.605Z,1003.13
2023-08-15T10:48:27.010Z,1002.97
2023-08-15T10:49:28.399Z,1003.02
2023-08-15T10:50:29.858Z,1002.97
2023-08-15T10:51:31.312Z,1002.97
2023-08-15T10:52:32.725Z,1003.01
2023-08-15T10:53:34.132Z,1003.04
2023-08-15T10:54:35.606Z,1003.02
2023-08-15T10:55:37.016Z,1003.08
2023-08-15T10:56:38.446Z,1003.11
2023-08-15T10:57:39.846Z,1003.05
2023-08-15T10:58:42.837Z,1003.04
2023-08-15T10:59:43.213Z,1003.08
2023-08-15T11:00:44.605Z,1003.10
2023-08-15T11:01:46.031Z,1003.10
2023-08-15T11:02:47.449Z,1003.07
2023-08-15T11:03:48.853Z,1003.10
2023-08-15T11:04:50.285Z,1003.12
2023-08-15T11:05:51.664Z,1003.12
2023-08-15T11:06:53.082Z,1003.13
2023-08-15T11:07:54.510Z,1003.12
2023-08-15T11:08:55.919Z,1003.13
2023-08-15T11:09:57.305Z,1003.16
2023-08-15T11:10:58.715Z,1003.13
2023-08-15T11:12:00.140Z,1003.16
2023-08-15T11:13:01.787Z,1003.19
2023-08-15T11:14:03.182Z,1003.18
2023-08-15T11:15:04.631Z,1003.13
2023-08-15T11:16:06.031Z,1003.19
2023-08-15T11:17:07.413Z,1003.17
2023-08-15T11:18:08.848Z,1003.17
2023-08-15T11:19:10.251Z,1003.19
2023-08-15T11:20:11.662Z,1003.17
2023-08-15T11:21:13.124Z,1003.22
2023-08-15T11:22:14.545Z,1003.27
2023-08-15T11:23:15.948Z,1003.26
2023-08-15T11:24:17.601Z,1003.27
2023-08-15T11:25:19.019Z,1003.22
2023-08-15T11:26:20.395Z,1003.23
2023-08-15T11:27:21.929Z,1003.21
2023-08-15T11:28:23.456Z,1003.21
2023-08-15T11:29:24.840Z,1003.21
2023-08-15T11:30:26.226Z,1003.20
2023-08-15T11:31:27.643Z,1003.21
2023-08-15T11:32:29.048Z,1003.16
2023-08-15T11:33:30.459Z,1003.16
2023-08-15T11:34:31.869Z,1003.13
2023-08-15T11:35:33.288Z,1003.16
2023-08-15T11:36:34.796Z,1003.13
2023-08-15T11:37:36.215Z,1003.12
2023-08-15T11:38:37.656Z,1003.14
2023-08-15T11:39:39.079Z,1003.10
2023-08-15T11:40:40.465Z,1003.08
2023-08-15T11:41:41.871Z,1003.12
2023-08-15T11:42:43.255Z,1003.08
2023-08-15T11:43:44.675Z,1003.03
2023-08-15T11:44:46.111Z,1003.04
2023-08-15T11:45:47.526Z,1003.06
2023-08-15T11:46:54.481Z,1003.08
2023-08-15T11:47:50.828Z,1003.06
2023-08-15T11:48:52.284Z,1003.10
2023-08-15T11:49:53.668Z,1003.09
2023-08-15T11:50:55.069Z,1003.12
2023-08-15T11:51:56.454Z,1003.12
2023-08-15T11:52:57.853Z,1003.08
2023-08-15T11:53:59.268Z,1003.09
2023-08-15T11:55:00.657Z,1003.11
2023-08-15T11:56:02.091Z,1003.11
2023-08-15T11:57:03.510Z,1003.11
2023-08-15T11:58:04.901Z,1003.09
2023-08-15T11:59:06.341Z,1003.13
2023-08-15T12:00:07.742Z,1003.15
2023-08-15T12:01:09.161Z,1003.12
2023-08-15T12:02:10.530Z,1003.12
2023-08-15T12:03:12.030Z,1003.12
2023-08-15T12:04:13.609Z,1003.10
2023-08-15T12:05:15.015Z,1003.10
2023-08-15T12:06:16.411Z,1003.08
2023-08-15T12:07:17.813Z,1003.05
2023-08-15T12:08:19.214Z,1003.05
2023-08-15T12:09:20.620Z,1003.05
2023-08-15T12:10:22.032Z,1003.03
2023-08-15T12:11:23.447Z,1003.05
2023-08-15T12:12:25.030Z,1003.07
2023-08-15T12:13:26.589Z,1003.04
2023-08-15T12:14:30.719Z,1003.06
2023-08-15T12:15:29.919Z,1003.06
2023-08-15T12:16:31.318Z,1003.04
2023-08-15T12:17:32.815Z,1003.02
2023-08-15T12:18:34.241Z,1003.01
2023-08-15T12:19:35.683Z,1003.01
2023-08-15T12:20:37.072Z,1003.05
2023-08-15T12:21:38.484Z,1003.02
2023-08-15T12:22:39.874Z,1003.02
2023-08-15T12:23:41.277Z,1002.98
2023-08-15T12:24:42.693Z,1002.96
2023-08-15T12:25:44.114Z,1002.91
2023-08-15T12:26:45.502Z,1002.88
2023-08-15T12:27:46.916Z,1002.84
2023-08-15T12:28:48.319Z,1002.84
2023-08-15T12:30:12.335Z,1002.85
2023-08-15T12:30:51.640Z,1002.81
2023-08-15T12:31:53.135Z,1002.81
2023-08-15T12:32:54.536Z,1002.81
2023-08-15T12:33:55.928Z,1002.79
2023-08-15T12:34:57.405Z,1002.81
2023-08-15T12:35:58.778Z,1002.77
2023-08-15T12:37:00.174Z,1002.77
2023-08-15T12:38:01.583Z,1002.78
2023-08-15T12:39:02.982Z,1002.76
2023-08-15T12:40:07.889Z,1002.78
2023-08-15T12:41:06.342Z,1002.79
2023-08-15T12:42:07.700Z,1002.78
2023-08-15T12:43:09.095Z,1002.82
2023-08-15T12:44:10.517Z,1002.81
2023-08-15T12:45:11.941Z,1002.79
2023-08-15T12:46:13.568Z,1002.79
2023-08-15T12:47:21.163Z,1002.73
2023-08-15T12:48:17.057Z,1002.71
2023-08-15T12:49:18.443Z,1002.72
2023-08-15T12:50:19.879Z,1002.70
2023-08-15T12:51:21.269Z,1002.69
2023-08-15T12:52:22.821Z,1002.70
2023-08-15T12:53:24.401Z,1002.70
2023-08-15T12:54:25.915Z,1002.65
2023-08-15T12:55:27.411Z,1002.62
2023-08-15T12:56:28.784Z,1002.61
2023-08-15T12:57:30.202Z,1002.59
2023-08-15T12:58:31.576Z,1002.57
2023-08-15T12:59:32.984Z,1002.57
2023-08-15T13:00:34.432Z,1002.45
2023-08-15T13:01:36.978Z,1002.39
2023-08-15T13:02:37.774Z,1002.51
2023-08-15T13:03:39.166Z,1002.49
2023-08-15T13:04:40.602Z,1002.45
2023-08-15T13:05:42.031Z,1002.39
2023-08-15T13:06:43.455Z,1002.41
2023-08-15T13:07:44.895Z,1002.35
2023-08-15T13:08:46.300Z,1002.37
2023-08-15T13:09:47.763Z,1002.45
2023-08-15T13:10:49.166Z,1002.39
2023-08-15T13:11:50.583Z,1002.43
2023-08-15T13:12:51.979Z,1002.46
2023-08-15T13:13:53.463Z,1002.45
2023-08-15T13:15:04.187Z,1002.50
2023-08-15T13:15:56.783Z,1002.50
2023-08-15T13:16:58.184Z,1002.49
2023-08-15T13:17:59.558Z,1002.54
2023-08-15T13:19:00.944Z,1002.50
2023-08-15T13:20:02.321Z,1002.48
2023-08-15T13:21:03.756Z,1002.47
2023-08-15T13:22:05.213Z,1002.49
2023-08-15T13:23:06.594Z,1002.43
2023-08-15T13:24:08.054Z,1002.46
2023-08-15T13:25:09.495Z,1002.50
2023-08-15T13:26:10.903Z,1002.54
2023-08-15T13:27:12.295Z,1002.53
2023-08-15T13:28:13.681Z,1002.60
2023-08-15T13:29:15.246Z,1002.63
2023-08-15T13:30:16.638Z,1002.67
2023-08-15T13:31:18.100Z,1002.65
2023-08-15T13:32:19.629Z,1002.62
2023-08-15T13:33:21.199Z,1002.62
2023-08-15T13:34:22.603Z,1002.63
2023-08-15T13:35:23.995Z,1002.57
2023-08-15T13:36:25.440Z,1002.54
2023-08-15T13:37:26.814Z,1002.48
2023-08-15T13:38:28.263Z,1002.53
2023-08-15T13:39:29.663Z,1002.48
2023-08-15T13:40:31.063Z,1002.50
2023-08-15T13:41:32.482Z,1002.58
2023-08-15T13:42:38.779Z,1002.56
2023-08-15T13:43:35.850Z,1002.57
2023-08-15T13:44:37.253Z,1002.66
2023-08-15T13:45:38.676Z,1002.62
2023-08-15T13:46:40.162Z,1002.61
2023-08-15T13:47:41.665Z,1002.62
2023-08-15T13:48:43.027Z,1002.63
2023-08-15T13:49:44.558Z,1002.62
2023-08-15T13:50:45.939Z,1002.63
2023-08-15T13:51:47.350Z,1002.57
2023-08-15T13:52:48.743Z,1002.56
2023-08-15T13:53:50.144Z,1002.49
2023-08-15T13:54:51.538Z,1002.46
2023-08-15T13:55:52.936Z,1002.40
2023-08-15T13:56:55.753Z,1002.37
2023-08-15T13:57:56.330Z,1002.40
2023-08-15T13:58:57.753Z,1002.35
2023-08-15T13:59:59.144Z,1002.36
2023-08-15T14:01:00.539Z,1002.27
2023-08-15T14:02:02.055Z,1002.34
2023-08-15T14:03:03.488Z,1002.30
2023-08-15T14:04:04.862Z,1002.28
2023-08-15T14:05:06.260Z,1002.21
2023-08-15T14:06:07.673Z,1002.20
2023-08-15T14:07:09.083Z,1002.16
2023-08-15T14:08:10.471Z,1002.17
2023-08-15T14:09:11.862Z,1002.23
2023-08-15T14:10:13.440Z,1002.17
2023-08-15T14:11:14.843Z,1002.23
2023-08-15T14:12:16.254Z,1002.27
2023-08-15T14:13:17.645Z,1002.31
2023-08-15T14:14:19.038Z,1002.31
2023-08-15T14:15:20.461Z,1002.26
2023-08-15T14:16:22.155Z,1002.26
2023-08-15T14:17:23.534Z,1002.24
2023-08-15T14:18:24.942Z,1002.20
2023-08-15T14:19:26.349Z,1002.16
2023-08-15T14:20:27.769Z,1002.14
2023-08-15T14:21:29.161Z,1002.07
2023-08-15T14:22:30.587Z,1002.08
2023-08-15T14:23:31.978Z,1002.04
2023-08-15T14:24:33.362Z,1002.04
2023-08-15T14:25:34.782Z,1002.06
2023-08-15T14:26:36.194Z,1002.06
2023-08-15T14:27:37.648Z,1002.14
2023-08-15T14:28:39.052Z,1002.14
2023-08-15T14:29:40.440Z,1002.18
2023-08-15T14:30:41.866Z,1002.18
2023-08-15T14:31:43.256Z,1002.22
2023-08-15T14:32:44.786Z,1002.31
2023-08-15T14:33:46.151Z,1002.42
2023-08-15T14:34:47.551Z,1002.47
2023-08-15T14:35:49.880Z,1002.49
2023-08-15T14:36:50.160Z,1002.56
2023-08-15T14:37:51.573Z,1002.50
2023-08-15T14:38:52.987Z,1002.53
2023-08-15T14:39:54.408Z,1002.47
2023-08-15T14:40:55.815Z,1002.51
2023-08-15T14:41:57.222Z,1002.47
2023-08-15T14:42:58.677Z,1002.48
2023-08-15T14:44:00.067Z,1002.44
2023-08-15T14:45:01.492Z,1002.49
2023-08-15T14:46:02.902Z,1002.55
2023-08-15T14:47:04.308Z,1002.54
2023-08-15T14:48:05.799Z,1002.60
2023-08-15T14:49:07.206Z,1002.61
2023-08-15T14:50:08.621Z,1002.64
2023-08-15T14:51:10.018Z,1002.68
2023-08-15T14:52:11.398Z,1002.64
2023-08-15T14:53:12.803Z,1002.67
2023-08-15T14:54:14.226Z,1002.69
2023-08-15T14:55:15.639Z,1002.70
2023-08-15T14:56:18.533Z,1002.69
2023-08-15T14:57:18.963Z,1002.67
2023-08-15T14:58:20.400Z,1002.67
2023-08-15T14:59:21.790Z,1002.63
2023-08-15T15:00:23.182Z,1002.65
2023-08-15T15:01:24.701Z,1002.65
2023-08-15T15:02:26.282Z,1002.65
2023-08-15T15:03:28.080Z,1002.61
2023-08-15T15:04:29.518Z,1002.64
2023-08-15T15:05:30.919Z,1002.60
2023-08-15T15:06:32.294Z,1002.55
2023-08-15T15:07:33.706Z,1002.55
2023-08-15T15:08:35.137Z,1002.51
2023-08-15T15:09:36.648Z,1002.52
2023-08-15T15:10:38.052Z,1002.51
2023-08-15T15:11:39.464Z,1002.47
2023-08-15T15:12:40.839Z,1002.46
2023-08-15T15:13:42.243Z,1002.42
2023-08-15T15:14:43.686Z,1002.49
2023-08-15T15:15:53.786Z,1002.46
2023-08-15T15:16:47.149Z,1002.50
2023-08-15T15:17:48.669Z,1002.50
2023-08-15T15:18:50.156Z,1002.58
2023-08-15T15:19:51.801Z,1002.64
2023-08-15T15:20:53.382Z,1002.69
2023-08-15T15:21:54.822Z,1002.73
2023-08-15T15:22:56.266Z,1002.78
2023-08-15T15:23:57.727Z,1002.84
2023-08-15T15:24:59.092Z,1002.85
2023-08-15T15:26:00.480Z,1002.95
2023-08-15T15:27:01.882Z,1003.00
2023-08-15T15:28:03.263Z,1003.05
2023-08-15T15:29:04.689Z,1003.12
2023-08-15T15:30:06.074Z,1003.17
2023-08-15T15:31:07.498Z,1003.22
2023-08-15T15:32:08.944Z,1003.30
2023-08-15T15:33:10.423Z,1003.30
2023-08-15T15:34:11.887Z,1003.33
2023-08-15T15:35:13.276Z,1003.34
2023-08-15T15:36:14.677Z,1003.30
2023-08-15T15:37:16.071Z,1003.36
2023-08-15T15:38:17.467Z,1003.35
2023-08-15T15:39:18.857Z,1003.33
2023-08-15T15:40:20.247Z,1003.32
2023-08-15T15:41:21.633Z,1003.29
2023-08-15T15:42:23.242Z,1003.27
2023-08-15T15:43:24.812Z,1003.33
2023-08-15T15:44:26.296Z,1003.27
2023-08-15T15:45:27.698Z,1003.31
2023-08-15T15:46:35.016Z,1003.32
2023-08-15T15:47:31.088Z,1003.36
2023-08-15T15:48:32.532Z,1003.40
2023-08-15T15:49:33.940Z,1003.42
2023-08-15T15:50:35.329Z,1003.48
2023-08-15T15:51:36.724Z,1003.50
2023-08-15T15:52:38.113Z,1003.52
2023-08-15T15:53:39.514Z,1003.54
2023-08-15T15:54:40.940Z,1003.52
2023-08-15T15:55:42.343Z,1003.52
2023-08-15T15:56:43.733Z,1003.52
2023-08-15T15:57:45.128Z,1003.47
2023-08-15T15:58:46.516Z,1003.47
2023-08-15T15:59:47.951Z,1003.47
2023-08-15T16:00:49.351Z,1003.50
2023-08-15T16:01:50.755Z,1003.49
2023-08-15T16:02:52.119Z,1003.55
2023-08-15T16:03:53.498Z,1003.50
2023-08-15T16:04:54.877Z,1003.55
2023-08-15T16:05:56.263Z,1003.51
2023-08-15T16:06:57.675Z,1003.49
2023-08-15T16:07:59.061Z,1003.50
2023-08-15T16:09:00.481Z,1003.50
2023-08-15T16:10:01.918Z,1003.44
2023-08-15T16:11:03.300Z,1003.50
2023-08-15T16:12:04.674Z,1003.51
2023-08-15T16:13:06.095Z,1003.44
2023-08-15T16:14:07.491Z,1003.43